Coleman A. Young Municipal Airport
KDET : now visible

Airfield :











YOU CAN JOIN US ON...

 
LOGIN :

Register | Disclaimer

   EN    FR    IT 

 









Legend :    VFR   Marginal VFR   IFR   Intensive IFR   Very Intensive IFR
Visi :
Ceiling :
>= 8 km
>= 3000ft
5 to 8 km
1000 to 3000 ft
1500m to 5 km
500 to 1000 ft
800 to 1500m
200 to 500 ft
< 800m
< 200 ft
Symbols :   Thunderstorms  Fog  Heavy snow  Heavy precipitations  Wind > 20 kt






- Airport Elevation : 626 ft
- IATA code : DET


KDET - Coleman A. Young Municipal

CURRENT METAR :
  • 181153Z 14011G22KT 3/4SM -SN BR OVC007 M02/M02 A3006 RMK AO2 PRESFR SLP186 P0002 60005 70005 T10171022 11017 21033 58059

EXPIRED METARs :
  • 181125Z 13011KT 3/4SM -SN BR OVC007 M02/M02 A3009 RMK AO2 P0001 T10171022
  • 181108Z 13011KT 1 1/2SM -SN BR BKN007 BKN018 OVC025 M02/M03 A3010 RMK AO2 P0000 T10171028
  • 181100Z 12012KT 1 3/4SM -SN BR SCT006 BKN018 OVC025 M02/M03 A3010 RMK AO2 P0000 T10221028
  • 181053Z 11012KT 1 1/2SM -SN BR FEW006 BKN014 OVC025 M02/M03 A3011 RMK AO2 PRESFR SLP206 P0001 T10221028
  • 181043Z 12011KT 1 1/4SM -SN BR FEW006 OVC014 M02/M03 A3013 RMK AO2 PRESFR P0001 T10221033
  • 181035Z 12009KT 3/4SM -SN BR FEW007 OVC011 M03/M03 A3015 RMK AO2 P0001 T10281033
  • 180953Z 13012G25KT 1SM -SN BR BKN010 OVC014 M03/M03 A3020 RMK AO2 PK WND 12029/0902 SLP235 P0000 T10281033
  • 180945Z 12015G22KT 1SM -SN BR BKN010 OVC016 M03/M04 A3019 RMK AO2 PK WND 12029/0902 P0000 T10281039

TAF KDET
Valid from the 18 at 12:00 until the 19 at 12:00 UTC


181139Z 1812/1912 13012G18KT 1/2SM SN OVC008
TEMPO 1812/1813 1/4SM +SN VV003
FM181300 14014G20KT 1SM -SNPL OVC006
FM181500 17015G25KT 2SM -DZ OVC006
FM181800 19016G26KT 3SM SHRA BKN008 OVC015
FM182200 22018G28KT P6SM VCSH OVC018
FM190200 26022G32KT P6SM OVC025
TEMPO 1902/1905 3SM -SHSN BKN012 OVC022
FM190700 27020G28KT P6SM SCT025 OVC035



MET'MAP, your aeronautical weather chart ! - Copyright ORBIFLY December 2007 - Disclaimer

ORBIFLY MET'MAP TEAM :

Programming & Development : Alexandra Zaïnal
Concept & original design : Baudouin d'Aumeries
Assistance for programming : Marc-Olivier Méhu
Technical & hardware support : Manuel Goepfert

Contact : metmap@orbifly.com




SOURCES & CREDITS :

   NOAA       Earth
Advisory